Latest Weather Observations for Rabbit Flat

IDD60801

Issued at 1:31 pm CST Friday 27 February 2015 (issued every 30 minutes, with the page automatically refreshed every 10 minutes)

About weather observations | Map of weather stations | Latest weather observations for NT | Other Formats
Station Details ID: 015666 Name: RABBIT FLAT Lat: -20.18 Lon: 130.01 Height: 340.0 m
Data from the previous 72 hours. | See also: Recent months at Rabbit Flat
Date/Time
CST
Temp
°C
App
Temp
°C
Dew
Point
Rel
Hum
%
Delta-T
°C
Wind Press
QNH
hPa
Press
MSL
hPa
Rain
since 9 am
mm
Dir
 
Spd
km/h
Gust
km/h
Spd
kts
Gust
kts
27/01:30pm 37.3 36.7 18.8 33 12.4 SW 20 30 11 16 1007.1 - 0.0
27/01:00pm 36.7 37.4 18.9 35 11.9 SW 13 22 7 12 1007.6 - 0.0
27/12:30pm 36.0 36.2 19.3 37 11.2 SSW 17 24 9 13 1008.2 - 0.0
27/12:00pm 35.5 35.7 20.2 40 10.4 W 19 30 10 16 1008.7 1006.0 0.0
27/11:30am 35.2 35.3 20.3 41 10.1 SSW 20 30 11 16 1009.1 - 0.0
27/11:00am 34.5 34.4 20.0 42 9.8 SW 20 30 11 16 1009.4 - 0.0
27/10:30am 33.8 33.4 20.2 44 9.2 WSW 22 32 12 17 1009.7 - 0.0
27/10:00am 33.0 31.8 20.9 49 8.2 WSW 28 39 15 21 1009.8 - 0.0
27/09:30am 32.1 31.0 21.1 52 7.5 WSW 28 35 15 19 1009.3 - 0.0
27/09:24am 31.8 30.8 21.2 53 7.2 WSW 28 35 15 19 1009.2 - 0.0
27/09:00am 31.3 35.8 21.6 56 6.6 CALM 0 0 0 0 1009.3 1006.6 0.0
27/08:30am 29.0 33.5 21.6 64 5.0 CALM 0 0 0 0 1008.9 - 0.0
27/08:00am 28.1 32.6 21.5 67 4.5 CALM 0 0 0 0 1008.5 - 0.0
27/07:30am 27.5 32.0 21.6 70 4.0 CALM 0 0 0 0 1008.0 - 0.0
27/07:00am 27.2 31.9 21.9 73 3.6 CALM 0 0 0 0 1007.7 - 0.0
27/06:30am 26.8 31.7 22.3 76 3.1 CALM 0 0 0 0 1007.1 - 0.0
27/06:00am 26.7 31.8 22.6 78 2.8 CALM 0 0 0 0 1007.0 1004.2 0.0
27/05:30am 26.8 31.7 22.4 77 3.0 CALM 0 0 0 0 1006.4 - 0.0
27/05:00am 26.8 31.9 22.6 78 2.9 CALM 0 0 0 0 1006.4 - 0.0
27/04:30am 27.0 32.2 22.8 78 2.9 CALM 0 0 0 0 1007.0 - 0.0
27/04:00am 27.6 32.3 22.0 71 3.8 CALM 0 0 0 0 1007.0 - 0.0
27/03:30am 27.7 32.3 21.8 70 4.0 CALM 0 0 0 0 1006.2 - 0.0
27/03:00am 27.8 32.2 21.4 68 4.3 CALM 0 0 0 0 1006.0 1003.3 0.0
27/02:30am 27.6 32.2 21.7 70 4.0 CALM 0 0 0 0 1006.1 - 0.0
27/02:00am 27.4 32.1 22.0 72 3.7 CALM 0 0 0 0 1006.3 - 0.0
27/01:30am 27.5 32.2 21.9 71 3.8 CALM 0 0 0 0 1006.4 - 0.0
27/01:00am 27.9 32.3 21.4 67 4.4 CALM 0 0 0 0 1006.9 - 0.0
27/12:30am 28.7 32.8 20.8 62 5.3 CALM 0 0 0 0 1007.2 - 0.0
27/12:00am 29.1 33.0 20.4 59 5.8 CALM 0 0 0 0 1007.3 1004.5 0.0
 
Date/Time
CST
Temp
°C
App
Temp
°C
Dew
Point
Rel
Hum
%
Delta-T
°C
Wind Press
QNH
hPa
Press
MSL
hPa
Rain
since 9 am
mm
Dir
 
Spd
km/h
Gust
km/h
Spd
kts
Gust
kts
26/11:30pm 29.3 33.3 20.5 59 5.9 CALM 0 0 0 0 1007.3 - 0.0
26/11:00pm 30.2 34.4 20.9 57 6.3 CALM 0 0 0 0 1007.2 - 0.0
26/10:30pm 30.3 35.7 23.3 66 4.9 CALM 0 0 0 0 1007.1 - 0.0
26/10:00pm 29.9 36.2 24.7 73 3.7 CALM 0 0 0 0 1006.8 - 0.0
26/09:30pm 30.1 36.0 24.1 70 4.2 CALM 0 0 0 0 1006.6 - 0.0
26/09:00pm 30.0 35.7 23.7 69 4.4 CALM 0 0 0 0 1006.3 1003.6 0.0
26/08:30pm 30.0 35.2 22.9 65 4.9 CALM 0 0 0 0 1005.7 - 0.0
26/08:00pm 30.1 35.2 22.7 64 5.1 CALM 0 0 0 0 1005.1 - 0.0
26/07:30pm 30.7 36.2 23.4 65 5.1 CALM 0 0 0 0 1004.8 - 0.0
26/07:00pm 32.0 36.6 21.8 54 7.0 CALM 0 0 0 0 1004.4 - 0.0
26/06:30pm 33.2 36.7 22.1 52 7.7 W 7 9 4 5 1004.2 - 0.0
26/06:00pm 32.9 36.9 22.0 52 7.5 W 4 9 2 5 1004.0 1001.2 0.0
26/05:30pm 33.2 35.0 19.6 44 9.1 WNW 9 13 5 7 1003.9 - 0.0
26/05:00pm 32.5 32.1 18.9 44 9.0 N 19 32 10 17 1004.4 - 0.0
26/04:38pm 32.7 30.1 18.6 43 9.3 NE 30 61 16 33 1004.6 - 0.0
26/04:30pm 36.6 38.6 20.0 38 11.2 W 9 17 5 9 1004.4 - 0.0
26/04:00pm 39.1 37.6 16.4 26 14.8 SE 19 24 10 13 1004.1 - 0.0
26/03:30pm 40.0 38.7 16.7 25 15.3 SSW 19 28 10 15 1004.4 - 0.0
26/03:00pm 40.0 40.5 17.4 26 15.0 S 11 20 6 11 1005.1 1002.4 0.0
26/02:30pm 39.8 42.4 17.5 27 14.8 CALM 0 0 0 0 1005.8 - 0.0
26/02:00pm 38.6 41.2 17.4 29 14.0 CALM 0 0 0 0 1006.3 - 0.0
26/01:30pm 38.8 39.6 18.1 29 13.8 SE 11 20 6 11 1006.9 - 0.0
26/01:00pm 38.3 38.3 18.0 30 13.5 S 15 26 8 14 1007.4 - 0.0
26/12:30pm 37.9 37.0 17.8 30 13.3 SSE 19 30 10 16 1007.9 - 0.0
26/12:00pm 36.6 36.8 19.4 36 11.6 S 17 30 9 16 1008.4 1005.7 0.0
26/11:30am 36.5 36.6 19.2 36 11.6 S 17 30 9 16 1008.9 - 0.0
26/11:00am 35.7 39.4 19.9 39 10.7 CALM 0 0 0 0 1009.1 - 0.0
26/10:30am 35.6 39.9 21.2 43 9.9 CALM 0 0 0 0 1009.5 - 0.0
26/10:00am 34.2 38.4 21.0 46 9.0 CALM 0 0 0 0 1009.5 - 0.0
26/09:30am 33.5 37.9 21.4 49 8.3 CALM 0 0 0 0 1009.7 - 0.0
26/09:00am 32.7 37.2 21.6 52 7.6 CALM 0 0 0 0 1009.4 1006.7 0.0
26/08:30am 31.0 36.0 22.5 60 5.9 CALM 0 0 0 0 1009.3 - 0.0
26/08:00am 28.1 33.8 23.8 77 3.0 CALM 0 0 0 0 1009.1 - 0.0
26/07:30am 26.2 31.9 23.8 87 1.7 CALM 0 0 0 0 1008.8 - 0.0
26/07:00am 25.0 30.3 23.1 89 1.3 CALM 0 0 0 0 1008.6 - 0.0
26/06:30am 25.1 30.4 23.1 89 1.4 CALM 0 0 0 0 1008.3 - 0.0
26/06:00am 24.9 30.5 23.5 92 1.0 CALM 0 0 0 0 1007.9 1005.2 0.0
26/05:30am 25.4 30.8 23.2 88 1.5 CALM 0 0 0 0 1007.5 - 0.0
26/05:00am 25.4 30.6 22.9 86 1.7 CALM 0 0 0 0 1007.5 - 0.0
26/04:30am 25.6 30.8 22.8 84 1.9 CALM 0 0 0 0 1007.5 - 0.0
26/04:00am 25.6 31.1 23.4 88 1.5 CALM 0 0 0 0 1007.6 - 0.0
26/03:30am 25.9 31.2 23.0 84 2.0 CALM 0 0 0 0 1007.7 - 0.0
26/03:00am 26.0 31.2 22.8 82 2.2 CALM 0 0 0 0 1007.7 1005.0 0.0
26/02:30am 26.2 31.6 23.3 84 2.0 CALM 0 0 0 0 1008.1 - 0.0
26/02:00am 26.2 31.9 23.8 87 1.7 CALM 0 0 0 0 1008.4 - 0.0
26/01:30am 26.6 32.4 23.9 85 1.9 CALM 0 0 0 0 1008.6 - 0.0
26/01:00am 26.7 32.3 23.5 82 2.2 CALM 0 0 0 0 1008.7 - 0.0
26/12:30am 27.0 32.9 24.1 84 2.0 CALM 0 0 0 0 1008.9 - 0.0
26/12:00am 27.5 33.4 24.1 82 2.4 CALM 0 0 0 0 1009.1 1006.4 0.0
 
Date/Time
CST
Temp
°C
App
Temp
°C
Dew
Point
Rel
Hum
%
Delta-T
°C
Wind Press
QNH
hPa
Press
MSL
hPa
Rain
since 9 am
mm
Dir
 
Spd
km/h
Gust
km/h
Spd
kts
Gust
kts
25/11:30pm 27.6 33.6 24.2 82 2.4 CALM 0 0 0 0 1009.5 - 0.0
25/11:00pm 28.2 34.9 25.4 85 2.0 CALM 0 0 0 0 1009.8 - 0.0
25/10:30pm 28.4 35.2 25.6 85 2.0 CALM 0 0 0 0 1009.7 - 0.0
25/10:00pm 29.0 35.7 25.4 81 2.6 CALM 0 0 0 0 1009.4 - 0.0
25/09:30pm 29.3 35.9 25.2 78 2.9 CALM 0 0 0 0 1009.2 - 0.0
25/09:00pm 29.5 35.8 24.8 76 3.3 CALM 0 0 0 0 1009.0 1006.3 0.0
25/08:30pm 30.2 36.9 26.5 80 2.7 SSW 4 7 2 4 1008.5 - 0.0
25/08:00pm 31.2 36.5 25.0 69 4.4 S 6 6 3 3 1008.2 - 0.0
25/07:30pm 32.5 37.4 24.3 62 5.8 S 6 7 3 4 1007.8 - 0.0
25/07:00pm 33.9 36.6 20.7 46 9.0 E 7 9 4 5 1007.5 - 0.0
25/06:30pm 35.5 37.2 19.4 38 10.8 E 9 15 5 8 1007.4 - 0.0
25/06:00pm 36.4 37.9 18.9 35 11.7 ESE 9 15 5 8 1006.9 1004.1 0.0
25/05:30pm 36.4 37.2 17.3 32 12.5 E 9 17 5 9 1006.8 - 0.0
25/05:00pm 36.9 36.4 17.8 32 12.6 NNE 17 24 9 13 1006.9 - 0.0
25/04:30pm 37.0 37.5 18.4 33 12.4 NE 13 19 7 10 1007.3 - 0.0
25/04:00pm 36.2 38.8 17.6 33 12.2 CALM 0 0 0 0 1007.5 - 0.0
25/03:30pm 36.7 39.6 18.3 34 12.2 CALM 0 0 0 0 1007.9 - 0.0
25/03:00pm 36.3 39.2 18.2 34 12.0 CALM 0 0 0 0 1008.2 1005.5 0.0
25/02:30pm 36.0 39.2 18.9 36 11.4 CALM 0 0 0 0 1008.4 - 0.0
25/02:00pm 35.8 39.2 19.4 38 11.0 CALM 0 0 0 0 1008.7 - 0.0
25/01:30pm 35.5 38.7 18.8 37 11.1 CALM 0 0 0 0 1009.3 - 0.0
25/01:00pm 35.1 38.2 18.7 38 10.9 CALM 0 0 0 0 1010.1 - 0.0
25/12:30pm 33.9 37.6 19.9 43 9.4 CALM 0 0 0 0 1010.6 - 0.0
25/12:00pm 33.9 37.9 20.5 45 9.1 CALM 0 0 0 0 1011.2 1008.5 0.0
25/11:30am 33.5 37.2 20.0 45 9.1 CALM 0 0 0 0 1011.6 - 0.0
25/11:00am 33.4 36.6 18.9 42 9.6 CALM 0 0 0 0 1011.9 - 0.0
25/10:30am 33.0 36.3 19.0 43 9.3 CALM 0 0 0 0 1012.2 - 0.0
25/10:00am 32.1 35.6 19.5 47 8.4 CALM 0 0 0 0 1012.4 - 0.0
25/09:30am 31.4 35.6 20.9 53 7.1 CALM 0 0 0 0 1012.4 - 0.0
25/09:00am 29.9 35.5 23.6 69 4.4 CALM 0 0 0 0 1012.5 1009.8 0.0
25/08:30am 27.3 33.7 24.9 87 1.7 CALM 0 0 0 0 1012.1 - 0.0
25/08:00am 26.1 32.6 25.0 94 0.8 CALM 0 0 0 0 1012.0 - 0.0
25/07:30am 25.5 31.8 24.8 96 0.5 CALM 0 0 0 0 1011.8 - 0.0
25/07:00am 25.1 31.2 24.5 96 0.4 CALM 0 0 0 0 1011.5 - 0.0
25/06:30am 25.0 31.1 24.4 96 0.4 CALM 0 0 0 0 1010.9 - 0.0
25/06:00am 25.2 31.4 24.6 96 0.4 CALM 0 0 0 0 1010.4 1007.7 0.0
25/05:30am 25.5 31.8 24.8 96 0.5 CALM 0 0 0 0 1010.0 - 0.0
25/05:00am 25.5 31.7 24.6 95 0.6 CALM 0 0 0 0 1010.1 - 0.0
25/04:30am 25.2 31.4 24.6 96 0.4 CALM 0 0 0 0 1010.0 - 0.0
25/04:00am 25.2 31.2 24.3 95 0.6 CALM 0 0 0 0 1009.9 - 0.0
25/03:30am 25.3 31.5 24.6 96 0.5 CALM 0 0 0 0 1009.9 - 0.0
25/03:00am 25.5 31.8 24.8 96 0.5 CALM 0 0 0 0 1010.0 1007.2 0.0
25/02:30am 25.7 32.0 24.7 94 0.7 CALM 0 0 0 0 1010.1 - 0.0
25/02:00am 26.0 32.2 24.6 92 1.0 CALM 0 0 0 0 1010.4 - 0.0
25/01:30am 26.3 32.4 24.4 89 1.3 CALM 0 0 0 0 1010.4 - 0.0
25/01:00am 26.4 32.4 24.3 88 1.5 CALM 0 0 0 0 1010.6 - 0.0
25/12:30am 26.6 32.4 23.9 85 1.9 CALM 0 0 0 0 1010.9 - 0.0
25/12:00am 27.3 32.9 23.6 80 2.6 CALM 0 0 0 0 1011.0 1008.3 0.0
 
Date/Time
CST
Temp
°C
App
Temp
°C
Dew
Point
Rel
Hum
%
Delta-T
°C
Wind Press
QNH
hPa
Press
MSL
hPa
Rain
since 9 am
mm
Dir
 
Spd
km/h
Gust
km/h
Spd
kts
Gust
kts
24/11:30pm 28.2 33.4 22.8 72 3.7 CALM 0 0 0 0 1011.3 - 0.0
24/11:00pm 28.6 33.6 22.5 69 4.2 CALM 0 0 0 0 1011.4 - 0.0
24/10:30pm 28.9 34.1 22.8 69 4.2 CALM 0 0 0 0 1011.1 - 0.0
24/10:00pm 28.5 35.0 25.1 82 2.4 CALM 0 0 0 0 1010.6 - 0.0
24/09:30pm 28.7 35.3 25.2 81 2.5 CALM 0 0 0 0 1010.3 - 0.0
24/09:00pm 28.9 35.2 24.8 78 2.9 CALM 0 0 0 0 1010.1 1007.4 0.0
24/08:30pm 29.7 37.1 26.5 83 2.3 CALM 0 0 0 0 1009.8 - 0.0
24/08:00pm 30.2 36.2 24.2 70 4.2 CALM 0 0 0 0 1009.5 - 0.0
24/07:30pm 30.5 36.4 24.1 68 4.5 CALM 0 0 0 0 1009.3 - 0.0
24/07:00pm 31.8 37.5 23.8 62 5.6 CALM 0 0 0 0 1009.1 - 0.0
24/06:30pm 32.2 37.0 22.2 55 6.9 CALM 0 0 0 0 1008.9 - 0.0
24/06:00pm 33.1 37.3 20.9 48 8.3 CALM 0 0 0 0 1008.8 1006.1 0.0
24/05:30pm 33.4 37.5 20.7 47 8.6 CALM 0 0 0 0 1008.6 - 0.0
24/05:00pm 34.2 38.3 20.7 45 9.2 CALM 0 0 0 0 1008.6 - 0.0
24/04:30pm 33.3 37.3 20.6 47 8.6 CALM 0 0 0 0 1008.7 - 0.0
24/04:00pm 33.6 36.9 21.9 50 8.1 NNW 7 15 4 8 1008.8 - 0.0
24/03:30pm 33.6 36.2 21.2 48 8.5 N 9 15 5 8 1009.1 - 0.0
24/03:00pm 32.8 34.3 21.2 50 7.9 N 15 22 8 12 1009.5 1006.8 0.0
24/02:30pm 32.5 34.0 21.2 51 7.7 NNE 15 26 8 14 1010.0 - 0.0
24/02:00pm 33.0 34.4 22.5 54 7.3 N 19 33 10 18 1010.5 - 0.0

Other Formats:

Comma delimited format used in spreadsheet applications
http://www.bom.gov.au/fwo/IDD60801/IDD60801.95322.axf

JavaScript Object Notation format (JSON) in row-major order
http://www.bom.gov.au/fwo/IDD60801/IDD60801.95322.json